Terminal Aerodrome Forecast
Issued by NWS

Current Version | Previous Version | Graphics & Text | Print | Product List | Glossary On
Versions: 1 2 3 4 5 6 7 8 9 10 11 12 13 14 15 16 17 18 19 20 21 22
000
FTUS41 KILN 180900 AAA
TAFLUK
TAF AMD
KLUK 180900Z 1809/1906 00000KT 3SM BR FEW003
      TEMPO 1809/1811 1/2SM FG VV001
     FM181200 00000KT 4SM BR SCT015
     FM181300 04006KT P6SM SCT040
     FM182300 00000KT P6SM SKC
     FM190400 00000KT 4SM BR SKC=

USA.gov is the U.S. government's official web portal to all federal, state and local government web resources and services.